Terminal Aerodrome Forecast
Issued by NWS

Home | Current Version | Previous Version | Text Only | Print | Product List | Glossary On
Versions: 1 2 3 4 5 6 7 8 9 10 11 12 13 14 15 16 17 18 19 20 21
000
FTUS46 KSEW 041201 AAA
TAFPAE
TAF AMD
KPAE 041201Z 0412/0512 03003KT P6SM SCT007 BKN050
      TEMPO 0412/0416 BKN004 OVC050
     FM041700 36008KT P6SM BKN080
     FM042300 36008KT P6SM SCT080 BKN150=

USA.gov is the U.S. government's official web portal to all federal, state and local government web resources and services.